Time;durP1;ratioP1;P1;durP2;ratioP2;P2;SDS_P1;SDS_P2;PMS_P1;PMS_P2;Temp;Humidity;BMP_temperature;BMP_pressure;BME280_temperature;BME280_humidity;BME280_pressure;Samples;Min_cycle;Max_cycle;Signal;HPM_P1;HPM_P2
2022/01/15 00:03:58;;;;;;;12.1;17.3;;;;;;;2.5;78.6;99650;;;;
2022/01/15 00:14:10;;;;;;;12.1;17.3;;;;;;;2.2;79.3;99640;;;;
2022/01/15 00:23:58;;;;;;;12.1;17.3;;;;;;;2;79.7;99640;;;;
2022/01/15 00:33:58;;;;;;;14.5;22.4;;;;;;;1.9;79.7;99630;;;;
2022/01/15 00:44:59;;;;;;;14.5;22.4;;;;;;;1.8;80.4;99640;;;;
2022/01/15 00:54:58;;;;;;;14.5;22.4;;;;;;;1.6;81.1;99640;;;;
2022/01/15 01:04:58;;;;;;;15.2;21.3;;;;;;;1.5;81.9;99640;;;;
2022/01/15 01:26:05;;;;;;;15.2;21.3;;;;;;;1.6;81.9;99660;;;;
2022/01/15 01:36:11;;;;;;;17.9;27.2;;;;;;;1.7;81.6;99670;;;;
2022/01/15 01:46:13;;;;;;;17.9;27.2;;;;;;;1.8;81.1;99680;;;;
2022/01/15 01:56:58;;;;;;;16.6;20.6;;;;;;;1.9;80.7;99680;;;;
2022/01/15 02:06:58;;;;;;;16.6;20.6;;;;;;;1.9;80.2;99670;;;;
2022/01/15 02:17:58;;;;;;;16.6;20.6;;;;;;;1.9;79.3;99670;;;;
2022/01/15 02:28:58;;;;;;;13.8;22.6;;;;;;;1.8;78.3;99660;;;;
2022/01/15 02:38:58;;;;;;;13.8;22.6;;;;;;;1.7;78.2;99660;;;;
2022/01/15 02:49:58;;;;;;;13.8;22.6;;;;;;;1.5;78.3;99680;;;;
2022/01/15 03:00:58;;;;;;;14.2;20.6;;;;;;;1.3;78.1;99680;;;;
2022/01/15 03:12:02;;;;;;;14.2;20.6;;;;;;;1.1;79;99690;;;;
2022/01/15 03:22:58;;;;;;;14.2;20.6;;;;;;;1;79.6;99690;;;;
2022/01/15 03:32:58;;;;;;;16.2;31.6;;;;;;;0.8;80;99690;;;;
2022/01/15 03:43:58;;;;;;;16.2;31.6;;;;;;;0.8;80.2;99690;;;;
2022/01/15 03:53:58;;;;;;;16.2;31.6;;;;;;;0.9;80.1;99690;;;;
2022/01/15 04:04:58;;;;;;;14.3;20.1;;;;;;;1;79.7;99710;;;;
2022/01/15 04:16:00;;;;;;;14.3;20.1;;;;;;;0.9;79.6;99710;;;;
2022/01/15 04:25:58;;;;;;;14.3;20.1;;;;;;;0.9;79.6;99710;;;;
2022/01/15 04:37:02;;;;;;;17.4;22.3;;;;;;;0.9;79.2;99720;;;;
2022/01/15 04:46:59;;;;;;;17.4;22.3;;;;;;;1;79.1;99720;;;;
2022/01/15 04:56:58;;;;;;;19.5;29.4;;;;;;;1;79.3;99720;;;;
2022/01/15 05:06:58;;;;;;;19.5;29.4;;;;;;;1;79;99720;;;;
2022/01/15 05:17:58;;;;;;;19.5;29.4;;;;;;;1;78.3;99740;;;;
2022/01/15 05:27:58;;;;;;;20.9;28.3;;;;;;;0.9;77.9;99740;;;;
2022/01/15 05:38:58;;;;;;;20.9;28.3;;;;;;;0.8;77.8;99740;;;;
2022/01/15 05:48:58;;;;;;;20.9;28.3;;;;;;;0.7;78;99730;;;;
2022/01/15 05:58:58;;;;;;;22.8;31;;;;;;;0.5;78.6;99740;;;;
2022/01/15 06:08:58;;;;;;;22.8;31;;;;;;;0.5;78.6;99750;;;;
2022/01/15 06:19:58;;;;;;;22.8;31;;;;;;;0.4;78.6;99750;;;;
2022/01/15 06:30:58;;;;;;;24.1;32.8;;;;;;;0.3;79.1;99750;;;;
2022/01/15 06:40:58;;;;;;;24.1;32.8;;;;;;;0.1;79.4;99760;;;;
2022/01/15 06:50:58;;;;;;;24.1;32.8;;;;;;;0.1;79.5;99780;;;;
2022/01/15 07:01:58;;;;;;;26.9;34.6;;;;;;;0.4;79.7;99780;;;;
2022/01/15 07:12:58;;;;;;;26.9;34.6;;;;;;;0.5;79.5;99790;;;;
2022/01/15 07:22:59;;;;;;;26.9;34.6;;;;;;;0.6;79.3;99790;;;;
2022/01/15 07:32:58;;;;;;;29.1;42.7;;;;;;;0.6;79.1;99790;;;;
2022/01/15 07:42:58;;;;;;;29.1;42.7;;;;;;;0.7;79.1;99800;;;;
2022/01/15 07:53:58;;;;;;;29.1;42.7;;;;;;;0.8;79.1;99820;;;;
2022/01/15 08:04:58;;;;;;;25.7;40.3;;;;;;;0.9;79;99820;;;;
2022/01/15 08:15:58;;;;;;;25.7;40.3;;;;;;;1.1;78.4;99830;;;;
2022/01/15 08:25:58;;;;;;;23.3;35.3;;;;;;;1.3;77.8;99820;;;;
2022/01/15 08:36:58;;;;;;;23.3;35.3;;;;;;;1.4;77.2;99830;;;;
2022/01/15 08:47:01;;;;;;;23.3;35.3;;;;;;;1.4;76.5;99820;;;;
2022/01/15 08:57:58;;;;;;;19.4;30;;;;;;;1.4;76.8;99820;;;;
2022/01/15 09:08:58;;;;;;;19.4;30;;;;;;;1.2;76.9;99840;;;;
2022/01/15 09:19:58;;;;;;;19.4;30;;;;;;;1.1;76.4;99820;;;;
2022/01/15 09:30:15;;;;;;;21.9;32.3;;;;;;;1.3;76.1;99830;;;;
2022/01/15 09:39:58;;;;;;;21.9;32.3;;;;;;;1.6;75.4;99830;;;;
2022/01/15 09:49:58;;;;;;;21.9;32.3;;;;;;;1.9;74;99820;;;;
2022/01/15 10:00:58;;;;;;;22.4;28.9;;;;;;;2.3;72.3;99830;;;;
2022/01/15 10:11:58;;;;;;;22.4;28.9;;;;;;;2.5;71.5;99810;;;;
2022/01/15 10:21:58;;;;;;;22.4;28.9;;;;;;;2.7;71.3;99810;;;;
2022/01/15 10:31:58;;;;;;;21.3;29.2;;;;;;;2.8;70.6;99810;;;;
2022/01/15 10:41:58;;;;;;;21.3;29.2;;;;;;;2.9;69.8;99820;;;;
2022/01/15 10:52:58;;;;;;;21.3;29.2;;;;;;;3;68.6;99830;;;;
2022/01/15 11:02:58;;;;;;;17.9;25.7;;;;;;;3.3;68.2;99820;;;;
2022/01/15 11:12:58;;;;;;;17.9;25.7;;;;;;;3.3;67.6;99830;;;;
2022/01/15 11:24:02;;;;;;;17.9;25.7;;;;;;;3.5;67;99820;;;;
2022/01/15 11:33:58;;;;;;;16.8;27;;;;;;;3.7;65.9;99810;;;;
2022/01/15 11:44:58;;;;;;;16.8;27;;;;;;;3.7;65.2;99820;;;;
2022/01/15 11:55:58;;;;;;;16.7;24.7;;;;;;;3.9;64.5;99810;;;;
2022/01/15 12:05:59;;;;;;;16.7;24.7;;;;;;;3.9;63.2;99810;;;;
2022/01/15 12:15:58;;;;;;;16.7;24.7;;;;;;;4;62.9;99810;;;;
2022/01/15 12:26:58;;;;;;;15.6;21.8;;;;;;;3.9;63.6;99800;;;;
2022/01/15 12:37:58;;;;;;;15.6;21.8;;;;;;;3.4;64.3;99780;;;;
2022/01/15 12:47:58;;;;;;;15.6;21.8;;;;;;;3.6;65.1;99780;;;;
2022/01/15 12:57:58;;;;;;;18.8;24.5;;;;;;;3.7;64.8;99770;;;;
2022/01/15 13:07:58;;;;;;;18.8;24.5;;;;;;;3.7;64.3;99770;;;;
2022/01/15 13:18:58;;;;;;;18.8;24.5;;;;;;;3.5;64.2;99770;;;;
2022/01/15 13:28:58;;;;;;;16.3;21.1;;;;;;;3.6;63.7;99770;;;;
2022/01/15 13:38:58;;;;;;;16.3;21.1;;;;;;;3.4;64.2;99780;;;;
2022/01/15 13:48:58;;;;;;;16.3;21.1;;;;;;;3.3;65.1;99780;;;;
2022/01/15 13:58:58;;;;;;;15.1;17.6;;;;;;;3.1;65.5;99790;;;;
2022/01/15 14:09:58;;;;;;;15.1;17.6;;;;;;;2.9;66;99800;;;;
2022/01/15 14:20:17;;;;;;;15.1;17.6;;;;;;;2.7;66.8;99790;;;;
2022/01/15 14:30:58;;;;;;;15.4;21.2;;;;;;;2.6;67.6;99790;;;;
2022/01/15 14:40:58;;;;;;;15.4;21.2;;;;;;;2.3;68.2;99790;;;;
2022/01/15 14:51:58;;;;;;;15.4;21.2;;;;;;;2;70;99800;;;;
2022/01/15 15:02:58;;;;;;;19.5;25;;;;;;;1.7;71.6;99780;;;;
2022/01/15 15:12:58;;;;;;;19.5;25;;;;;;;1.5;72.3;99780;;;;
2022/01/15 15:22:58;;;;;;;19.5;25;;;;;;;1.2;73.6;99790;;;;
2022/01/15 15:33:58;;;;;;;32.5;40.1;;;;;;;0.9;74.1;99790;;;;
2022/01/15 15:43:58;;;;;;;32.5;40.1;;;;;;;0.7;75.1;99790;;;;
2022/01/15 15:53:58;;;;;;;32.5;40.1;;;;;;;0.7;75.6;99800;;;;
2022/01/15 16:04:58;;;;;;;31.7;45.3;;;;;;;0.5;75.7;99800;;;;
2022/01/15 16:14:58;;;;;;;31.7;45.3;;;;;;;0.3;76.3;99800;;;;
2022/01/15 16:25:58;;;;;;;37.5;52.4;;;;;;;0.2;76.8;99810;;;;
2022/01/15 16:35:59;;;;;;;37.5;52.4;;;;;;;0.2;77.4;99810;;;;
2022/01/15 16:45:58;;;;;;;37.5;52.4;;;;;;;0;77.1;99810;;;;
2022/01/15 16:56:58;;;;;;;38.5;53.4;;;;;;;-0.1;77.7;99810;;;;
2022/01/15 17:07:58;;;;;;;38.5;53.4;;;;;;;-0.2;78;99810;;;;
2022/01/15 17:17:58;;;;;;;38.5;53.4;;;;;;;-0.3;78.3;99810;;;;
2022/01/15 17:28:00;;;;;;;37.9;52.8;;;;;;;-0.4;78.6;99810;;;;
2022/01/15 17:37:58;;;;;;;37.9;52.8;;;;;;;-0.5;78.9;99820;;;;
2022/01/15 17:48:58;;;;;;;37.9;52.8;;;;;;;-0.6;79;99820;;;;
2022/01/15 17:59:58;;;;;;;34.7;48;;;;;;;-0.6;79.4;99810;;;;
2022/01/15 18:10:58;;;;;;;34.7;48;;;;;;;-0.6;79.6;99800;;;;
2022/01/15 18:20:58;;;;;;;34.7;48;;;;;;;-0.6;79.7;99810;;;;
2022/01/15 18:30:58;;;;;;;37.5;48.9;;;;;;;-0.7;79.4;99810;;;;
2022/01/15 18:41:58;;;;;;;37.5;48.9;;;;;;;-0.8;79.9;99800;;;;
2022/01/15 18:51:58;;;;;;;37.5;48.9;;;;;;;-0.9;79.9;99810;;;;
2022/01/15 19:02:58;;;;;;;39.8;52.4;;;;;;;-0.9;79.9;99830;;;;
2022/01/15 19:12:58;;;;;;;39.8;52.4;;;;;;;-1;80;99870;;;;
2022/01/15 19:22:58;;;;;;;39.8;52.4;;;;;;;-1.1;80.1;99830;;;;
2022/01/15 19:33:58;;;;;;;47.5;64.8;;;;;;;-1.2;80.1;99830;;;;
2022/01/15 19:43:58;;;;;;;47.5;64.8;;;;;;;-1.2;80.6;99770;;;;
2022/01/15 19:54:58;;;;;;;43.9;63.6;;;;;;;-1.2;81.4;99730;;;;
2022/01/15 20:04:58;;;;;;;43.9;63.6;;;;;;;-1.2;81;99780;;;;
2022/01/15 20:14:58;;;;;;;43.9;63.6;;;;;;;-1.3;81;99810;;;;
2022/01/15 20:25:58;;;;;;;38.7;57.3;;;;;;;-1.4;81.1;99750;;;;
2022/01/15 20:35:58;;;;;;;38.7;57.3;;;;;;;-1.2;82.2;99740;;;;
2022/01/15 20:46:58;;;;;;;38.7;57.3;;;;;;;-1.3;81.3;99770;;;;
2022/01/15 20:57:58;;;;;;;43.4;68.9;;;;;;;-1.4;81.4;99730;;;;
2022/01/15 21:07:58;;;;;;;43.4;68.9;;;;;;;-1.6;80.7;99750;;;;
2022/01/15 21:18:58;;;;;;;43.4;68.9;;;;;;;-1.8;80.4;99770;;;;
2022/01/15 21:28:58;;;;;;;39.7;51.7;;;;;;;-2;80.3;99770;;;;
2022/01/15 21:39:58;;;;;;;39.7;51.7;;;;;;;-2.2;80.4;99760;;;;
2022/01/15 21:49:58;;;;;;;39.7;51.7;;;;;;;-2.4;80.5;99740;;;;
2022/01/15 22:00:58;;;;;;;73.3;100.5;;;;;;;-2.6;80.7;99760;;;;
2022/01/15 22:10:58;;;;;;;73.3;100.5;;;;;;;-2.7;80.8;99770;;;;
2022/01/15 22:22:00;;;;;;;73.3;100.5;;;;;;;-2.7;80.8;99760;;;;
2022/01/15 22:31:58;;;;;;;35.3;47.4;;;;;;;-2.8;81;99740;;;;
2022/01/15 22:41:58;;;;;;;35.3;47.4;;;;;;;-2.8;80.9;99750;;;;
2022/01/15 22:51:58;;;;;;;35.3;47.4;;;;;;;-2.8;80.9;99750;;;;
2022/01/15 23:01:58;;;;;;;43.1;61.9;;;;;;;-2.8;81;99760;;;;
2022/01/15 23:12:04;;;;;;;43.1;61.9;;;;;;;-2.9;80.8;99750;;;;
2022/01/15 23:22:01;;;;;;;43.1;61.9;;;;;;;-3;80.6;99740;;;;
2022/01/15 23:32:58;;;;;;;85;112.9;;;;;;;-3.1;80.6;99740;;;;
2022/01/15 23:44:04;;;;;;;85;112.9;;;;;;;-3.2;80.4;99730;;;;
2022/01/15 23:54:58;;;;;;;51.2;65.8;;;;;;;-3.2;81;99720;;;;
